首页
METAR-TAF:

METAR-TAF

机场 :

维罗纳, 意大利

纬度: 45-23N, 经度: 010-52E, 海拔: 67米

当前天气观测

该预报发布于34分钟前的00:20 UTC
风速2节,风向多变
温度 14°C
湿度 72%
气压 1029 hPa
能见度10公里或以上

METAR: LIPX 270020Z AUTO VRB02KT 9999 FEW093/// 14/09 Q1029

时间: 02:54 (00:54 UTC)

预报

该预报发布于4小时和54分钟前的20:00 UTC
预报有效从26日的 21点(UTC)到 27日的 06点(UTC)
风速7节,风向
能见度10公里或以上
散云层高于6000英尺

TAF: LIPX 262000Z 2621/2706 08007KT 9999 SCT060

超过4000个机场的气象观测和天气预报(METAR&TAF报告)。

可查询的气象台以黄色和红色小点在地图上表示。

将鼠标移到小点上方,可查看气象台名称。

然后点击查看天气观测和预报。

如需切换地图:点击带黑十字的绿色按钮放大地图;点击带横线的绿色按钮缩小地图;或者点击绿色箭头查看邻近地区的地图。


METAR-TAF: